createdAt,value
2018-11-05T00:01:32.207Z,18.30
2018-11-05T00:04:00.392Z,18.70
2018-11-05T00:06:29.901Z,18.97
2018-11-05T00:08:58.078Z,17.70
2018-11-05T00:11:26.107Z,16.27
2018-11-05T00:13:54.302Z,16.47
2018-11-05T00:16:22.446Z,17.83
2018-11-05T00:18:51.525Z,16.73
2018-11-05T00:21:20.379Z,17.43
2018-11-05T00:23:49.993Z,17.37
2018-11-05T00:26:18.223Z,16.53
2018-11-05T00:28:46.354Z,17.87
2018-11-05T00:31:14.495Z,19.00
2018-11-05T00:33:42.721Z,18.10
2018-11-05T00:36:10.857Z,19.43
2018-11-05T00:38:38.994Z,19.80
2018-11-05T00:41:07.830Z,19.23
2018-11-05T00:43:36.793Z,19.07
2018-11-05T00:46:05.093Z,19.27
2018-11-05T00:48:32.996Z,17.30
2018-11-05T00:51:00.905Z,18.23
2018-11-05T00:53:28.893Z,17.50
2018-11-05T00:55:57.189Z,18.10
2018-11-05T00:58:25.093Z,18.03
2018-11-05T01:00:54.097Z,17.20
2018-11-05T01:03:22.233Z,15.93
2018-11-05T01:05:51.237Z,15.97
2018-11-05T01:08:19.581Z,17.03
2018-11-05T01:10:47.975Z,17.20
2018-11-05T01:13:17.086Z,16.90
2018-11-05T01:15:44.968Z,14.37
2018-11-05T01:18:12.875Z,15.23
2018-11-05T01:20:41.324Z,14.07
2018-11-05T01:23:09.262Z,15.17
2018-11-05T01:25:37.159Z,15.87
2018-11-05T01:28:05.157Z,15.23
2018-11-05T01:30:33.510Z,15.73
2018-11-05T01:33:01.637Z,15.53
2018-11-05T01:35:30.429Z,14.27
2018-11-05T01:37:58.549Z,14.03
2018-11-05T01:40:26.694Z,13.77
2018-11-05T01:42:55.653Z,13.40
2018-11-05T01:45:23.797Z,13.10
2018-11-05T01:47:51.970Z,13.47
2018-11-05T01:50:20.121Z,14.97
2018-11-05T01:52:48.690Z,18.17
2018-11-05T01:55:18.192Z,18.00
2018-11-05T01:57:47.119Z,18.73
2018-11-05T02:00:17.112Z,18.80
2018-11-05T02:02:46.510Z,17.40
2018-11-05T02:05:14.908Z,17.03
2018-11-05T02:07:44.279Z,16.37
2018-11-05T02:10:17.235Z,16.97
2018-11-05T02:12:45.482Z,16.50
2018-11-05T02:15:14.127Z,19.10
2018-11-05T02:17:44.248Z,18.57
2018-11-05T02:20:14.166Z,19.53
2018-11-05T02:22:42.696Z,17.33
2018-11-05T02:25:12.346Z,18.47
2018-11-05T02:27:40.849Z,19.07
2018-11-05T02:30:10.874Z,19.13
2018-11-05T02:32:40.497Z,19.80
2018-11-05T02:35:11.123Z,18.47
2018-11-05T02:37:40.935Z,17.83
2018-11-05T02:40:12.579Z,21.03
2018-11-05T02:42:43.158Z,19.27
2018-11-05T02:45:14.103Z,19.00
2018-11-05T02:47:42.348Z,17.93
2018-11-05T02:50:11.694Z,19.27
2018-11-05T02:52:40.921Z,21.30
2018-11-05T02:55:09.882Z,18.07
2018-11-05T02:57:38.218Z,17.93
2018-11-05T03:00:11.569Z,19.57
2018-11-05T03:02:40.427Z,21.20
2018-11-05T03:05:11.604Z,22.33
2018-11-05T03:07:40.582Z,21.80
2018-11-05T03:10:10.083Z,20.63
2018-11-05T03:12:38.588Z,18.60
2018-11-05T03:15:07.086Z,19.57
2018-11-05T03:17:35.727Z,19.00
2018-11-05T03:20:04.064Z,18.23
2018-11-05T03:22:32.086Z,18.43
2018-11-05T03:25:00.232Z,18.67
2018-11-05T03:27:28.713Z,17.23
2018-11-05T03:29:57.037Z,17.40
2018-11-05T03:32:25.221Z,16.13
2018-11-05T03:34:53.375Z,16.30
2018-11-05T03:37:21.713Z,15.90
2018-11-05T03:39:49.982Z,15.27
2018-11-05T03:42:17.916Z,17.47
2018-11-05T03:44:46.080Z,19.13
2018-11-05T03:47:14.810Z,20.70
2018-11-05T03:49:43.682Z,18.77
2018-11-05T03:52:12.450Z,18.90
2018-11-05T03:54:40.610Z,17.57
2018-11-05T03:57:08.766Z,17.83
2018-11-05T03:59:37.316Z,18.17
2018-11-05T04:02:06.248Z,17.43
2018-11-05T04:04:34.422Z,18.17
2018-11-05T04:07:02.748Z,18.43
2018-11-05T04:09:30.904Z,20.37
2018-11-05T04:11:59.633Z,17.83
2018-11-05T04:14:27.915Z,20.03
2018-11-05T04:16:57.228Z,18.27
2018-11-05T04:19:25.515Z,17.57
2018-11-05T04:21:55.148Z,17.77
2018-11-05T04:24:23.914Z,17.70
2018-11-05T04:26:52.071Z,17.60
2018-11-05T04:29:20.381Z,17.10
2018-11-05T04:31:49.481Z,18.13
2018-11-05T04:34:18.835Z,17.27
2018-11-05T04:36:47.090Z,17.10
2018-11-05T04:39:16.149Z,17.73
2018-11-05T04:41:44.330Z,16.90
2018-11-05T04:44:12.514Z,15.93
2018-11-05T04:46:42.110Z,15.77
2018-11-05T04:49:10.131Z,16.40
2018-11-05T04:51:39.282Z,17.87
2018-11-05T04:54:07.769Z,15.60
2018-11-05T04:56:35.966Z,17.97
2018-11-05T04:59:04.150Z,17.80
2018-11-05T05:01:33.656Z,15.60
2018-11-05T05:04:03.269Z,15.30
2018-11-05T05:06:31.408Z,15.87
2018-11-05T05:08:59.342Z,15.10
2018-11-05T05:11:27.503Z,16.57
2018-11-05T05:13:56.468Z,17.43
2018-11-05T05:16:25.671Z,19.20
2018-11-05T05:18:53.746Z,15.93
2018-11-05T05:21:21.905Z,16.17
2018-11-05T05:23:50.878Z,14.50
2018-11-05T05:26:19.035Z,14.67
2018-11-05T05:28:48.185Z,15.47
2018-11-05T05:31:16.342Z,15.60
2018-11-05T05:33:44.365Z,14.70
2018-11-05T05:36:12.502Z,15.60
2018-11-05T05:38:40.802Z,13.80
2018-11-05T05:41:09.074Z,14.30
2018-11-05T05:43:37.373Z,14.13
2018-11-05T05:46:06.020Z,15.43
2018-11-05T05:48:34.194Z,17.23
2018-11-05T05:51:02.354Z,13.80
2018-11-05T05:53:31.028Z,13.47
2018-11-05T05:55:59.869Z,15.33
2018-11-05T05:58:28.039Z,13.67
2018-11-05T06:00:56.991Z,17.47
2018-11-05T06:03:26.307Z,14.90
2018-11-05T06:05:54.827Z,14.80
2018-11-05T06:08:22.844Z,16.87
2018-11-05T06:10:51.117Z,17.90
2018-11-05T06:13:19.286Z,17.00
2018-11-05T06:15:48.252Z,15.87
2018-11-05T06:18:16.393Z,13.53
2018-11-05T06:20:45.057Z,15.07
2018-11-05T06:23:13.958Z,14.83
2018-11-05T06:25:42.607Z,16.40
2018-11-05T06:28:12.179Z,15.23
2018-11-05T06:30:40.356Z,15.33
2018-11-05T06:33:08.511Z,15.23
2018-11-05T06:35:36.687Z,15.43
2018-11-05T06:38:05.706Z,15.70
2018-11-05T06:40:35.143Z,14.53
2018-11-05T06:43:04.475Z,14.23
2018-11-05T06:45:33.951Z,14.97
2018-11-05T06:48:03.367Z,16.20
2018-11-05T06:50:33.126Z,18.50
2018-11-05T06:53:01.270Z,15.60
2018-11-05T06:55:29.138Z,18.57
2018-11-05T06:57:57.058Z,16.07
2018-11-05T07:00:25.742Z,15.80
2018-11-05T07:02:56.175Z,16.33
2018-11-05T07:05:24.103Z,16.90
2018-11-05T07:07:52.265Z,15.73
2018-11-05T07:10:20.434Z,16.37
2018-11-05T07:12:49.338Z,14.60
2018-11-05T07:15:19.845Z,16.27
2018-11-05T07:17:49.328Z,14.10
2018-11-05T07:20:18.946Z,15.70
2018-11-05T07:22:47.701Z,15.97
2018-11-05T07:25:16.171Z,12.30
2018-11-05T07:27:47.967Z,12.30
2018-11-05T07:30:19.222Z,14.13
2018-11-05T07:32:51.193Z,10.70
2018-11-05T07:35:20.362Z,12.47
2018-11-05T07:37:48.526Z,12.40
2018-11-05T07:40:18.220Z,11.13
2018-11-05T07:42:46.810Z,12.27
2018-11-05T07:45:16.469Z,12.33
2018-11-05T07:47:45.885Z,14.83
2018-11-05T07:50:15.496Z,11.70
2018-11-05T07:52:43.365Z,12.83
2018-11-05T07:55:12.415Z,12.37
2018-11-05T07:57:42.435Z,11.53
2018-11-05T08:00:19.537Z,10.53
2018-11-05T08:02:49.786Z,10.53
2018-11-05T08:05:19.216Z,10.77
2018-11-05T08:07:47.674Z,11.47
2018-11-05T08:10:15.847Z,12.20
2018-11-05T08:12:44.474Z,11.13
2018-11-05T08:15:15.107Z,11.07
2018-11-05T08:17:44.801Z,11.50
2018-11-05T08:20:13.055Z,9.93
2018-11-05T08:22:41.227Z,10.97
2018-11-05T08:25:10.363Z,8.87
2018-11-05T08:27:39.281Z,10.10
2018-11-05T08:30:17.767Z,9.20
2018-11-05T08:32:46.009Z,10.30
2018-11-05T08:35:14.305Z,9.87
2018-11-05T08:37:43.586Z,10.53
2018-11-05T08:40:14.648Z,11.30
2018-11-05T08:42:44.083Z,10.77
2018-11-05T08:45:13.448Z,11.17
2018-11-05T08:47:42.844Z,10.10
2018-11-05T08:50:13.426Z,11.73
2018-11-05T08:52:41.515Z,10.53
2018-11-05T08:55:11.477Z,10.50
2018-11-05T08:57:40.279Z,11.07
2018-11-05T09:00:14.583Z,10.40
2018-11-05T09:02:43.441Z,10.77
2018-11-05T09:05:12.075Z,9.47
2018-11-05T09:07:39.973Z,10.93
2018-11-05T09:10:09.186Z,10.63
2018-11-05T09:12:38.342Z,9.13
2018-11-05T09:15:08.646Z,10.50
2018-11-05T09:17:37.298Z,9.77
2018-11-05T09:20:07.166Z,9.77
2018-11-05T09:22:35.117Z,10.23
2018-11-05T09:25:03.362Z,9.27
2018-11-05T09:27:32.221Z,10.30
2018-11-05T09:30:01.165Z,10.20
2018-11-05T09:32:29.340Z,9.20
2018-11-05T09:34:58.135Z,9.87
2018-11-05T09:37:26.130Z,9.70
2018-11-05T09:39:54.833Z,9.30
2018-11-05T09:42:22.979Z,9.50
2018-11-05T09:44:54.459Z,9.00
2018-11-05T09:47:22.366Z,9.50
2018-11-05T09:49:50.512Z,9.10
2018-11-05T09:52:20.483Z,9.73
2018-11-05T09:54:50.253Z,9.97
2018-11-05T09:57:19.091Z,10.47
2018-11-05T09:59:46.965Z,11.17
2018-11-05T10:02:14.929Z,10.47
2018-11-05T10:04:44.842Z,10.67
2018-11-05T10:07:12.758Z,11.27
2018-11-05T10:09:41.897Z,11.37
2018-11-05T10:12:10.050Z,12.10
2018-11-05T10:14:38.196Z,10.70
2018-11-05T10:17:07.522Z,11.63
2018-11-05T10:19:35.972Z,11.30
2018-11-05T10:22:04.389Z,11.80
2018-11-05T10:24:32.655Z,11.80
2018-11-05T10:27:00.737Z,14.00
2018-11-05T10:29:28.887Z,13.00
2018-11-05T10:31:57.038Z,12.30
2018-11-05T10:34:25.206Z,11.60
2018-11-05T10:36:54.229Z,16.93
2018-11-05T10:39:23.855Z,13.63
2018-11-05T10:41:52.638Z,13.13
2018-11-05T10:44:20.783Z,11.87
2018-11-05T10:46:48.706Z,11.77
2018-11-05T10:49:17.022Z,11.57
2018-11-05T10:51:45.065Z,10.60
2018-11-05T10:54:13.139Z,11.77
2018-11-05T10:56:42.281Z,10.83
2018-11-05T10:59:11.582Z,11.27
2018-11-05T11:01:45.218Z,12.00
2018-11-05T11:04:19.487Z,12.40
2018-11-05T11:06:47.346Z,11.23
2018-11-05T11:09:16.680Z,12.67
2018-11-05T11:11:46.729Z,10.90
2018-11-05T11:14:14.685Z,11.97
2018-11-05T11:16:44.443Z,11.30
2018-11-05T11:19:12.603Z,10.83
2018-11-05T11:21:42.995Z,11.40
2018-11-05T11:24:11.154Z,11.13
2018-11-05T11:26:41.167Z,10.23
2018-11-05T11:29:09.400Z,11.10
2018-11-05T11:31:37.262Z,11.77
2018-11-05T11:34:05.637Z,11.40
2018-11-05T11:36:34.090Z,11.50
2018-11-05T11:39:02.221Z,11.13
2018-11-05T11:41:30.374Z,11.47
2018-11-05T11:43:58.312Z,11.73
2018-11-05T11:46:26.447Z,11.33
2018-11-05T11:48:54.602Z,10.57
2018-11-05T11:51:22.785Z,10.17
2018-11-05T11:53:54.153Z,10.80
2018-11-05T11:56:22.363Z,10.13
2018-11-05T11:58:50.261Z,9.43
2018-11-05T12:01:19.984Z,8.80
2018-11-05T12:03:47.909Z,9.20
2018-11-05T12:06:18.818Z,9.97
2018-11-05T12:08:46.963Z,8.97
2018-11-05T12:11:17.107Z,8.23
2018-11-05T12:13:45.398Z,9.57
2018-11-05T12:16:13.683Z,10.00
2018-11-05T12:18:42.711Z,9.13
2018-11-05T12:21:12.570Z,8.97
2018-11-05T12:23:40.485Z,8.23
2018-11-05T12:26:08.978Z,8.63
2018-11-05T12:28:37.122Z,8.87
2018-11-05T12:31:06.491Z,8.50
2018-11-05T12:33:35.851Z,8.73
2018-11-05T12:36:04.003Z,8.63
2018-11-05T12:38:32.293Z,8.80
2018-11-05T12:41:01.046Z,8.80
2018-11-05T12:43:28.965Z,9.17
2018-11-05T12:45:58.827Z,10.03
2018-11-05T12:48:28.538Z,9.20
2018-11-05T12:50:56.866Z,9.07
2018-11-05T12:53:27.076Z,9.63
2018-11-05T12:55:55.467Z,9.77
2018-11-05T12:58:25.866Z,9.17
2018-11-05T13:00:54.216Z,9.60
2018-11-05T13:03:23.978Z,10.30
2018-11-05T13:05:52.143Z,9.53
2018-11-05T13:08:20.305Z,9.63
2018-11-05T13:10:48.450Z,9.00
2018-11-05T13:13:17.302Z,8.57
2018-11-05T13:15:45.450Z,8.83
2018-11-05T13:18:14.319Z,8.37
2018-11-05T13:20:44.242Z,8.77
2018-11-05T13:23:13.522Z,9.20
2018-11-05T13:25:41.437Z,8.87
2018-11-05T13:28:11.585Z,8.97
2018-11-05T13:30:39.751Z,8.27
2018-11-05T13:33:09.526Z,8.77
2018-11-05T13:35:37.438Z,7.73
2018-11-05T13:38:07.648Z,8.80
2018-11-05T13:40:35.306Z,8.20
2018-11-05T13:43:04.661Z,7.80
2018-11-05T13:45:33.787Z,7.50
2018-11-05T13:48:03.779Z,6.30
2018-11-05T13:50:32.173Z,7.07
2018-11-05T13:53:01.883Z,7.00
2018-11-05T13:55:29.790Z,6.47
2018-11-05T13:57:57.722Z,7.33
2018-11-05T14:00:25.919Z,6.67
2018-11-05T14:02:53.841Z,6.70
2018-11-05T14:05:23.872Z,6.80
2018-11-05T14:07:52.342Z,6.00
2018-11-05T14:10:21.106Z,6.10
2018-11-05T14:12:49.853Z,7.43
2018-11-05T14:15:19.434Z,8.93
2018-11-05T14:17:48.679Z,7.93
2018-11-05T14:20:18.058Z,7.90
2018-11-05T14:22:46.012Z,6.80
2018-11-05T14:25:16.813Z,7.00
2018-11-05T14:27:47.136Z,8.57
2018-11-05T14:30:15.570Z,9.00
2018-11-05T14:32:44.599Z,8.57
2018-11-05T14:35:13.568Z,8.63
2018-11-05T14:37:41.717Z,8.70
2018-11-05T14:40:13.238Z,6.30
2018-11-05T14:42:42.179Z,5.63
2018-11-05T14:45:16.698Z,5.20
2018-11-05T14:47:45.562Z,5.83
2018-11-05T14:50:15.329Z,6.20
2018-11-05T14:52:43.400Z,8.23
2018-11-05T14:55:13.531Z,8.43
2018-11-05T14:57:42.370Z,8.97
2018-11-05T15:00:15.067Z,8.93
2018-11-05T15:02:44.907Z,8.47
2018-11-05T15:05:13.763Z,8.53
2018-11-05T15:07:43.343Z,8.87
2018-11-05T15:10:21.746Z,8.80
2018-11-05T15:12:51.206Z,8.40
2018-11-05T15:15:19.979Z,7.30
2018-11-05T15:17:48.397Z,6.90
2018-11-05T15:20:21.195Z,7.47
2018-11-05T15:22:51.350Z,8.43
2018-11-05T15:25:20.684Z,7.90
2018-11-05T15:27:48.891Z,7.87
2018-11-05T15:30:19.666Z,7.63
2018-11-05T15:32:47.900Z,8.10
2018-11-05T15:35:17.781Z,8.13
2018-11-05T15:37:48.894Z,8.70
2018-11-05T15:40:18.410Z,8.67
2018-11-05T15:42:47.546Z,8.20
2018-11-05T15:45:18.791Z,8.73
2018-11-05T15:47:46.943Z,8.87
2018-11-05T15:50:16.329Z,8.20
2018-11-05T15:52:45.523Z,8.80
2018-11-05T15:55:13.724Z,8.67
2018-11-05T15:57:41.776Z,8.07
2018-11-05T16:00:15.271Z,7.73
2018-11-05T16:02:45.394Z,8.50
2018-11-05T16:05:15.038Z,8.50
2018-11-05T16:07:45.030Z,7.80
2018-11-05T16:10:13.388Z,7.60
2018-11-05T16:12:43.238Z,8.77
2018-11-05T16:15:12.038Z,9.43
2018-11-05T16:17:40.631Z,8.80
2018-11-05T16:20:11.346Z,9.17
2018-11-05T16:22:42.629Z,9.50
2018-11-05T16:25:12.372Z,11.83
2018-11-05T16:27:40.646Z,9.43
2018-11-05T16:30:15.706Z,9.13
2018-11-05T16:32:44.193Z,9.20
2018-11-05T16:35:12.213Z,9.30
2018-11-05T16:37:40.387Z,18.00
2018-11-05T16:40:13.255Z,16.27
2018-11-05T16:42:42.099Z,11.70
2018-11-05T16:45:12.796Z,9.70
2018-11-05T16:47:41.966Z,10.80
2018-11-05T16:50:17.584Z,10.80
2018-11-05T16:52:45.733Z,9.40
2018-11-05T16:55:14.570Z,10.57
2018-11-05T16:57:45.859Z,11.37
2018-11-05T17:00:19.381Z,10.50
2018-11-05T17:02:49.766Z,9.20
2018-11-05T17:05:17.818Z,8.40
2018-11-05T17:07:48.910Z,8.13
2018-11-05T17:10:17.211Z,11.87
2018-11-05T17:12:46.670Z,8.53
2018-11-05T17:15:15.929Z,8.83
2018-11-05T17:17:46.318Z,8.00
2018-11-05T17:20:17.070Z,9.90
2018-11-05T17:22:46.530Z,8.30
2018-11-05T17:25:14.970Z,9.30
2018-11-05T17:27:44.658Z,8.40
2018-11-05T17:30:17.091Z,10.17
2018-11-05T17:32:45.445Z,9.30
2018-11-05T17:35:15.106Z,12.67
2018-11-05T17:37:43.692Z,10.97
2018-11-05T17:40:15.707Z,9.87
2018-11-05T17:42:44.006Z,10.07
2018-11-05T17:45:14.429Z,10.37
2018-11-05T17:47:42.443Z,11.07
2018-11-05T17:50:12.999Z,10.60
2018-11-05T17:52:41.562Z,49.37
2018-11-05T17:55:10.280Z,11.73
2018-11-05T17:57:41.152Z,10.73
2018-11-05T18:00:12.289Z,22.00
2018-11-05T18:02:40.446Z,21.40
2018-11-05T18:05:08.370Z,21.63
2018-11-05T18:07:36.550Z,12.00
2018-11-05T18:10:06.012Z,9.40
2018-11-05T18:12:33.950Z,12.00
2018-11-05T18:15:01.967Z,14.10
2018-11-05T18:17:30.183Z,11.90
2018-11-05T18:19:58.339Z,13.37
2018-11-05T18:22:26.799Z,18.73
2018-11-05T18:24:54.970Z,24.27
2018-11-05T18:27:23.146Z,21.17
2018-11-05T18:29:51.383Z,25.50
2018-11-05T18:32:21.692Z,22.43
2018-11-05T18:34:51.566Z,15.47
2018-11-05T18:37:19.736Z,41.07
2018-11-05T18:39:48.122Z,35.43
2018-11-05T18:42:16.296Z,20.73
2018-11-05T18:44:44.503Z,26.50
2018-11-05T18:47:13.425Z,14.20
2018-11-05T18:49:41.348Z,11.13
2018-11-05T18:52:10.058Z,12.00
2018-11-05T18:54:38.691Z,24.80
2018-11-05T18:57:07.097Z,15.88
2018-11-05T18:59:35.866Z,12.10
2018-11-05T19:02:04.656Z,15.40
2018-11-05T19:04:32.928Z,14.47
2018-11-05T19:07:01.099Z,17.27
2018-11-05T19:09:29.534Z,15.73
2018-11-05T19:11:57.583Z,17.17
2018-11-05T19:14:26.637Z,16.17
2018-11-05T19:16:54.605Z,13.40
2018-11-05T19:19:22.830Z,14.43
2018-11-05T19:21:51.909Z,23.27
2018-11-05T19:24:20.086Z,24.43
2018-11-05T19:26:49.062Z,24.40
2018-11-05T19:29:17.234Z,22.77
2018-11-05T19:31:45.391Z,21.60
2018-11-05T19:34:14.394Z,17.13
2018-11-05T19:36:43.855Z,14.03
2018-11-05T19:39:13.403Z,14.40
2018-11-05T19:41:41.836Z,15.00
2018-11-05T19:44:09.947Z,14.57
2018-11-05T19:46:38.646Z,20.93
2018-11-05T19:49:06.842Z,13.27
2018-11-05T19:51:35.617Z,13.67
2018-11-05T19:54:04.493Z,11.83
2018-11-05T19:56:33.550Z,14.47
2018-11-05T19:59:01.494Z,13.57
2018-11-05T20:01:29.729Z,13.60
2018-11-05T20:03:57.689Z,14.63
2018-11-05T20:06:27.210Z,29.27
2018-11-05T20:08:55.752Z,22.87
2018-11-05T20:11:25.252Z,20.23
2018-11-05T20:13:53.877Z,13.63
2018-11-05T20:16:23.685Z,14.67
2018-11-05T20:18:51.956Z,20.40
2018-11-05T20:21:20.841Z,19.83
2018-11-05T20:23:50.553Z,19.10
2018-11-05T20:26:18.742Z,23.43
2018-11-05T20:28:47.643Z,39.33
2018-11-05T20:31:17.108Z,14.53
2018-11-05T20:33:45.287Z,13.33
2018-11-05T20:36:13.371Z,14.13
2018-11-05T20:38:41.596Z,12.87
2018-11-05T20:41:10.570Z,12.37
2018-11-05T20:43:39.756Z,12.67
2018-11-05T20:46:08.469Z,12.30
2018-11-05T20:48:36.626Z,12.43
2018-11-05T20:51:05.242Z,11.43
2018-11-05T20:53:34.336Z,11.70
2018-11-05T20:56:03.577Z,11.47
2018-11-05T20:58:31.726Z,9.47
2018-11-05T21:00:59.924Z,10.23
2018-11-05T21:03:28.070Z,10.80
2018-11-05T21:05:56.242Z,11.07
2018-11-05T21:08:24.406Z,12.23
2018-11-05T21:10:52.486Z,11.93
2018-11-05T21:13:20.400Z,12.17
2018-11-05T21:15:48.664Z,13.63
2018-11-05T21:18:16.740Z,12.30
2018-11-05T21:20:44.968Z,13.57
2018-11-05T21:23:13.120Z,13.77
2018-11-05T21:25:41.707Z,10.23
2018-11-05T21:28:10.021Z,11.40
2018-11-05T21:30:38.650Z,11.97
2018-11-05T21:33:07.947Z,11.70
2018-11-05T21:35:37.814Z,13.23
2018-11-05T21:38:09.452Z,13.80
2018-11-05T21:40:37.819Z,14.73
2018-11-05T21:43:06.457Z,12.67
2018-11-05T21:45:35.682Z,11.33
2018-11-05T21:48:04.912Z,12.10
2018-11-05T21:50:33.674Z,13.90
2018-11-05T21:53:02.873Z,14.37
2018-11-05T21:55:34.830Z,13.77
2018-11-05T21:58:03.577Z,14.57
2018-11-05T22:00:31.746Z,12.97
2018-11-05T22:03:03.463Z,13.50
2018-11-05T22:05:31.653Z,13.50
2018-11-05T22:08:00.174Z,13.93
2018-11-05T22:10:28.114Z,12.93
2018-11-05T22:12:56.283Z,12.30
2018-11-05T22:15:24.945Z,12.27
2018-11-05T22:17:52.906Z,12.13
2018-11-05T22:20:20.850Z,13.70
2018-11-05T22:22:49.160Z,14.53
2018-11-05T22:25:19.864Z,18.23
2018-11-05T22:27:48.886Z,19.97
2018-11-05T22:30:17.067Z,19.27
2018-11-05T22:32:45.238Z,17.30
2018-11-05T22:35:14.429Z,18.23
2018-11-05T22:37:42.666Z,14.83
2018-11-05T22:40:11.979Z,14.97
2018-11-05T22:42:40.168Z,16.13
2018-11-05T22:45:08.601Z,18.47
2018-11-05T22:47:36.854Z,20.67
2018-11-05T22:50:05.058Z,21.87
2018-11-05T22:52:33.049Z,20.67
2018-11-05T22:55:03.276Z,20.47
2018-11-05T22:57:32.226Z,18.33
2018-11-05T23:00:00.398Z,17.90
2018-11-05T23:02:28.630Z,16.47
2018-11-05T23:04:57.942Z,16.10
2018-11-05T23:07:26.382Z,15.90
2018-11-05T23:09:55.334Z,17.63
2018-11-05T23:12:25.914Z,16.57
2018-11-05T23:14:54.146Z,17.33
2018-11-05T23:17:22.318Z,16.57
2018-11-05T23:19:50.495Z,15.93
2018-11-05T23:22:20.421Z,14.47
2018-11-05T23:24:48.803Z,15.60
2018-11-05T23:27:17.628Z,14.93
2018-11-05T23:29:45.809Z,17.63
2018-11-05T23:32:14.146Z,16.60
2018-11-05T23:34:42.531Z,14.03
2018-11-05T23:37:10.703Z,15.07
2018-11-05T23:39:38.914Z,13.93
2018-11-05T23:42:08.330Z,14.47
2018-11-05T23:44:37.690Z,15.50
2018-11-05T23:47:05.614Z,15.60
2018-11-05T23:49:33.770Z,17.90
2018-11-05T23:52:02.407Z,18.27
2018-11-05T23:54:30.293Z,19.83
2018-11-05T23:56:58.452Z,19.23
2018-11-05T23:59:26.911Z,21.27
